Time;durP1;ratioP1;P1;durP2;ratioP2;P2;SDS_P1;SDS_P2;PMS_P1;PMS_P2;Temp;Humidity;BMP_temperature;BMP_pressure;BME280_temperature;BME280_humidity;BME280_pressure;Samples;Min_cycle;Max_cycle;Signal;HPM_P1;HPM_P2
2022/11/26 00:00:59;;;;;;;59.00;26.70;;;;;;;2.92;100.00;99172.58;213940;1312;22556;-75
2022/11/26 00:06:02;;;;;;;58.60;27.90;;;;;;;2.91;100.00;99173.93;213704;1312;23433;-75
2022/11/26 00:11:06;;;;;;;57.50;26.80;;;;;;;2.89;100.00;99178.27;213824;1312;25238;-75
2022/11/26 00:16:13;;;;;;;54.50;24.70;;;;;;;2.87;100.00;99185.39;213765;1311;22467;-75
2022/11/26 00:21:24;;;;;;;51.90;23.50;;;;;;;2.88;100.00;99187.83;213876;1312;22656;-73
2022/11/26 00:26:26;;;;;;;52.20;23.20;;;;;;;2.86;100.00;99193.59;213930;1312;22518;-75
2022/11/26 00:31:28;;;;;;;51.50;22.30;;;;;;;2.84;100.00;99196.35;213864;1312;25333;-75
2022/11/26 00:36:31;;;;;;;48.40;22.80;;;;;;;2.81;100.00;99199.13;213775;1312;24039;-74
2022/11/26 00:41:39;;;;;;;51.90;23.00;;;;;;;2.77;100.00;99199.30;213741;1312;25353;-75
2022/11/26 00:46:41;;;;;;;40.90;20.10;;;;;;;2.73;100.00;99198.52;213759;1312;25244;-74
2022/11/26 00:51:45;;;;;;;42.30;18.60;;;;;;;2.67;100.00;99204.13;213795;1312;22471;-75
2022/11/26 00:56:49;;;;;;;44.90;20.80;;;;;;;2.58;100.00;99206.86;213831;1297;22500;-74
2022/11/26 01:01:51;;;;;;;46.50;20.30;;;;;;;2.51;100.00;99207.85;213922;1312;22514;-75
2022/11/26 01:06:53;;;;;;;43.50;21.00;;;;;;;2.45;100.00;99211.88;213765;1311;24355;-76
2022/11/26 01:11:55;;;;;;;50.50;21.50;;;;;;;2.38;100.00;99215.30;213759;1312;24393;-75
2022/11/26 01:16:57;;;;;;;46.10;21.60;;;;;;;2.31;100.00;99219.38;213806;1312;22495;-75
2022/11/26 01:21:59;;;;;;;44.10;20.20;;;;;;;2.26;100.00;99223.30;213796;1312;23251;-75
2022/11/26 01:27:01;;;;;;;58.50;23.50;;;;;;;2.17;100.00;99228.20;213864;1312;25296;-75
2022/11/26 01:32:03;;;;;;;55.70;23.50;;;;;;;2.12;100.00;99223.48;213825;1311;22743;-74
2022/11/26 01:37:12;;;;;;;49.70;20.80;;;;;;;2.08;100.00;99226.77;213763;1312;22483;-74
2022/11/26 01:42:24;;;;;;;42.20;20.10;;;;;;;2.00;100.00;99232.55;213770;1312;22532;-75
2022/11/26 01:47:29;;;;;;;39.30;18.90;;;;;;;1.93;100.00;99237.83;213789;1312;22549;-74
2022/11/26 01:52:31;;;;;;;45.00;20.90;;;;;;;1.84;100.00;99243.38;213929;1312;26373;-75
2022/11/26 01:57:37;;;;;;;52.40;23.50;;;;;;;1.77;100.00;99241.79;213868;1311;25226;-74
2022/11/26 02:02:40;;;;;;;58.20;25.30;;;;;;;1.72;100.00;99245.24;213858;1312;23730;-75
2022/11/26 02:07:43;;;;;;;62.40;26.10;;;;;;;1.67;100.00;99252.16;213525;1312;22496;-75
2022/11/26 02:12:46;;;;;;;63.20;28.00;;;;;;;1.61;100.00;99251.83;213844;1312;22488;-75
2022/11/26 02:17:54;;;;;;;66.30;27.50;;;;;;;1.54;100.00;99248.34;213778;1312;25347;-74
2022/11/26 02:23:10;;;;;;;73.40;28.40;;;;;;;1.47;100.00;99248.09;213907;1311;22739;-75
2022/11/26 02:28:27;;;;;;;73.00;30.20;;;;;;;1.42;100.00;99249.83;213885;1306;22860;-74
2022/11/26 02:33:39;;;;;;;75.20;29.10;;;;;;;1.39;100.00;99245.40;213771;1312;24367;-75
2022/11/26 02:38:41;;;;;;;71.20;30.50;;;;;;;1.35;100.00;99245.88;213833;1312;25187;-75
2022/11/26 02:43:43;;;;;;;70.30;29.50;;;;;;;1.31;100.00;99252.64;213841;1312;24428;-74
2022/11/26 02:48:49;;;;;;;67.70;27.70;;;;;;;1.26;100.00;99255.66;213894;1312;22474;-74
2022/11/26 02:53:52;;;;;;;69.70;27.80;;;;;;;1.20;100.00;99256.84;213955;1312;25353;-75
2022/11/26 02:58:55;;;;;;;69.50;26.40;;;;;;;1.15;100.00;99256.23;214027;1312;25224;-75
2022/11/26 03:04:02;;;;;;;76.10;29.90;;;;;;;1.13;100.00;99259.31;213941;1312;23272;-75
2022/11/26 03:09:04;;;;;;;76.10;31.40;;;;;;;1.11;100.00;99260.10;213957;1307;23739;-74
2022/11/26 03:14:07;;;;;;;84.20;32.20;;;;;;;1.11;100.00;99260.31;213942;1312;22481;-74
2022/11/26 03:19:08;;;;;;;86.90;32.70;;;;;;;1.14;100.00;99263.10;213831;1308;22701;-75
2022/11/26 03:24:10;;;;;;;83.30;33.80;;;;;;;1.21;100.00;99262.47;213844;1312;25364;-75
2022/11/26 03:29:12;;;;;;;79.50;32.10;;;;;;;1.31;100.00;99270.07;213793;1312;22984;-75
2022/11/26 03:34:14;;;;;;;79.60;31.70;;;;;;;1.41;100.00;99272.83;213807;1312;24481;-74
2022/11/26 03:39:16;;;;;;;73.00;31.70;;;;;;;1.46;100.00;99266.21;213874;1312;25272;-75
2022/11/26 03:44:18;;;;;;;80.00;31.70;;;;;;;1.42;100.00;99265.98;213810;1307;24311;-75
2022/11/26 03:49:20;;;;;;;81.00;33.40;;;;;;;1.35;100.00;99271.70;213756;1312;24639;-75
2022/11/26 03:54:22;;;;;;;79.80;35.10;;;;;;;1.34;100.00;99268.38;213788;1311;22480;-74
2022/11/26 03:59:24;;;;;;;76.30;32.20;;;;;;;1.40;100.00;99268.90;213899;1312;25278;-74
2022/11/26 04:04:25;;;;;;;75.40;32.40;;;;;;;1.50;100.00;99270.03;213797;1311;22465;-75
2022/11/26 04:09:27;;;;;;;69.40;29.90;;;;;;;1.58;100.00;99273.14;213938;1312;22541;-75
2022/11/26 04:14:29;;;;;;;65.90;29.20;;;;;;;1.61;100.00;99275.70;213937;1312;24411;-74
2022/11/26 04:19:31;;;;;;;76.00;30.80;;;;;;;1.63;100.00;99284.10;213914;1312;25279;-75
2022/11/26 04:24:33;;;;;;;63.80;28.90;;;;;;;1.66;100.00;99289.36;213907;1312;24369;-74
2022/11/26 04:29:36;;;;;;;64.00;29.80;;;;;;;1.72;100.00;99292.14;213885;1312;22529;-75
2022/11/26 04:34:38;;;;;;;64.40;29.30;;;;;;;1.76;100.00;99301.42;213830;1312;22481;-75
2022/11/26 04:39:41;;;;;;;61.10;29.10;;;;;;;1.74;100.00;99306.27;213860;1305;22525;-75
2022/11/26 04:44:43;;;;;;;67.10;29.40;;;;;;;1.73;100.00;99311.36;213789;1312;25374;-74
2022/11/26 04:49:44;;;;;;;67.10;31.00;;;;;;;1.72;100.00;99317.58;213870;1304;22500;-75
2022/11/26 04:54:46;;;;;;;60.70;28.10;;;;;;;1.76;100.00;99323.92;213719;1312;24341;-76
2022/11/26 04:59:48;;;;;;;66.00;29.30;;;;;;;1.83;100.00;99328.90;213901;1312;22583;-75
2022/11/26 05:04:50;;;;;;;60.60;26.20;;;;;;;1.93;100.00;99331.26;213831;1306;24286;-75
2022/11/26 05:09:52;;;;;;;57.50;29.30;;;;;;;2.00;100.00;99328.14;213813;1312;22524;-74
2022/11/26 05:14:54;;;;;;;60.20;28.50;;;;;;;2.04;100.00;99327.80;213851;1312;22544;-75
2022/11/26 05:19:56;;;;;;;65.10;29.70;;;;;;;2.11;100.00;99331.41;213808;1306;25442;-75
2022/11/26 05:24:58;;;;;;;54.60;25.20;;;;;;;2.19;100.00;99338.86;213804;1312;22477;-75
2022/11/26 05:30:00;;;;;;;59.90;27.70;;;;;;;2.26;100.00;99341.42;213809;1312;22603;-74
2022/11/26 05:35:02;;;;;;;58.80;27.70;;;;;;;2.25;100.00;99346.11;213885;1312;24340;-75
2022/11/26 05:40:05;;;;;;;63.90;27.80;;;;;;;2.26;100.00;99345.85;213875;1310;24366;-75
2022/11/26 05:45:07;;;;;;;56.50;27.00;;;;;;;2.27;100.00;99351.98;213760;1311;23025;-75
2022/11/26 05:50:09;;;;;;;55.40;25.50;;;;;;;2.29;100.00;99361.65;213818;1288;25311;-74
2022/11/26 05:55:11;;;;;;;54.10;26.90;;;;;;;2.27;100.00;99369.63;213779;1312;24334;-75
2022/11/26 06:00:14;;;;;;;55.20;28.20;;;;;;;2.29;100.00;99372.88;213800;1312;25455;-75
2022/11/26 06:05:16;;;;;;;53.40;26.20;;;;;;;2.35;100.00;99378.18;213789;1309;22525;-74
2022/11/26 06:10:18;;;;;;;52.30;25.90;;;;;;;2.38;100.00;99380.98;213743;1312;23882;-76
2022/11/26 06:15:20;;;;;;;54.60;27.10;;;;;;;2.43;100.00;99390.23;213899;1304;22471;-75
2022/11/26 06:20:21;;;;;;;59.80;29.90;;;;;;;2.46;100.00;99392.14;213883;1312;22467;-75
2022/11/26 06:25:23;;;;;;;66.10;30.70;;;;;;;2.47;100.00;99395.30;213855;1312;22480;-75
2022/11/26 06:30:25;;;;;;;59.10;29.10;;;;;;;2.49;100.00;99406.89;213841;1312;22479;-76
2022/11/26 06:35:27;;;;;;;60.60;29.90;;;;;;;2.55;100.00;99408.81;213863;1312;22498;-76
2022/11/26 06:40:29;;;;;;;56.70;27.40;;;;;;;2.65;100.00;99414.33;213814;1311;22484;-76
2022/11/26 06:45:33;;;;;;;54.10;26.70;;;;;;;2.75;100.00;99417.05;213808;1312;25226;-75
2022/11/26 06:50:35;;;;;;;51.60;25.80;;;;;;;2.85;100.00;99423.95;213783;1312;26530;-76
2022/11/26 06:55:37;;;;;;;53.70;25.90;;;;;;;2.94;100.00;99429.01;213819;1312;23621;-77
2022/11/26 07:00:40;;;;;;;53.40;25.40;;;;;;;2.96;100.00;99433.75;213704;1312;22480;-76
2022/11/26 07:05:42;;;;;;;50.20;24.40;;;;;;;3.04;100.00;99437.70;213985;1312;24339;-77
2022/11/26 07:10:44;;;;;;;43.20;22.50;;;;;;;3.10;100.00;99442.70;213884;1310;22491;-77
2022/11/26 07:15:50;;;;;;;45.50;22.60;;;;;;;3.16;100.00;99444.35;213885;1312;25278;-77
2022/11/26 07:20:52;;;;;;;41.50;20.40;;;;;;;3.20;100.00;99446.73;213899;1311;22687;-77
2022/11/26 07:25:58;;;;;;;42.50;20.30;;;;;;;3.25;100.00;99447.61;213897;1311;23710;-77
2022/11/26 07:31:02;;;;;;;47.70;23.30;;;;;;;3.32;100.00;99446.30;213993;1309;25063;-76
2022/11/26 07:36:12;;;;;;;47.10;23.20;;;;;;;3.39;100.00;99452.20;213771;1312;22621;-75
2022/11/26 07:41:18;;;;;;;52.90;24.70;;;;;;;3.48;100.00;99456.36;213813;1306;22787;-76
2022/11/26 07:46:22;;;;;;;56.80;26.80;;;;;;;3.54;100.00;99457.34;214558;1280;22506;-74
2022/11/26 07:51:30;;;;;;;57.50;29.80;;;;;;;3.61;100.00;99465.52;214402;1289;24297;-75
2022/11/26 07:56:32;;;;;;;59.80;31.00;;;;;;;3.71;100.00;99471.94;214298;1310;22462;-75
2022/11/26 08:01:35;;;;;;;65.20;32.00;;;;;;;3.80;100.00;99478.06;214394;1295;22501;-75
2022/11/26 08:06:37;;;;;;;55.50;29.10;;;;;;;3.89;100.00;99483.50;214649;1281;22480;-75
2022/11/26 08:11:39;;;;;;;54.20;27.90;;;;;;;3.99;100.00;99489.73;214529;1281;22487;-74
2022/11/26 08:16:41;;;;;;;48.80;25.90;;;;;;;4.03;100.00;99493.29;214486;1295;22488;-72
2022/11/26 08:21:43;;;;;;;40.30;21.40;;;;;;;4.08;100.00;99496.56;214247;1310;22558;-72
2022/11/26 08:26:45;;;;;;;46.40;24.10;;;;;;;4.11;100.00;99499.09;214374;1299;25302;-73
2022/11/26 08:31:47;;;;;;;46.40;23.90;;;;;;;4.16;100.00;99500.06;214400;1289;25261;-73
2022/11/26 08:36:52;;;;;;;41.60;23.80;;;;;;;4.22;100.00;99502.21;214512;1281;22644;-72
2022/11/26 08:41:55;;;;;;;48.30;24.50;;;;;;;4.27;100.00;99505.20;214201;1281;22499;-73
2022/11/26 08:46:56;;;;;;;45.70;24.20;;;;;;;4.33;100.00;99508.73;214426;1309;22514;-72
2022/11/26 08:51:58;;;;;;;49.60;25.10;;;;;;;4.40;100.00;99509.55;214538;1310;22475;-72
2022/11/26 08:57:00;;;;;;;42.30;21.50;;;;;;;4.46;100.00;99515.98;214704;1281;22821;-73
2022/11/26 09:02:02;;;;;;;42.80;23.20;;;;;;;4.52;100.00;99516.52;214742;1281;24951;-72
2022/11/26 09:07:04;;;;;;;49.10;24.60;;;;;;;4.57;100.00;99522.84;214742;1286;25385;-73
2022/11/26 09:12:06;;;;;;;49.80;22.90;;;;;;;4.62;100.00;99524.85;214743;1288;25250;-73
2022/11/26 09:17:10;;;;;;;47.70;24.20;;;;;;;4.66;100.00;99529.25;214569;1310;27388;-74
2022/11/26 09:22:12;;;;;;;49.10;24.40;;;;;;;4.68;100.00;99532.69;214771;1286;24917;-74
2022/11/26 09:27:14;;;;;;;47.70;22.80;;;;;;;4.73;100.00;99533.42;214810;1286;24279;-74
2022/11/26 09:32:16;;;;;;;43.10;22.40;;;;;;;4.77;100.00;99540.05;214587;1279;22481;-73
2022/11/26 09:37:33;;;;;;;36.10;19.40;;;;;;;4.84;100.00;99537.60;214694;1286;26242;-74
2022/11/26 09:43:02;;;;;;;39.90;20.30;;;;;;;4.92;100.00;99536.71;214493;1308;22469;-73
2022/11/26 09:48:08;;;;;;;34.40;17.70;;;;;;;5.02;100.00;99540.75;214578;1278;25314;-72
2022/11/26 09:53:31;;;;;;;29.30;15.10;;;;;;;5.10;100.00;99541.81;214920;1279;22895;-74
2022/11/26 09:58:41;;;;;;;32.10;15.40;;;;;;;5.18;100.00;99544.61;214733;1285;22482;-73
2022/11/26 10:03:43;;;;;;;29.30;15.60;;;;;;;5.26;100.00;99551.53;214764;1287;23067;-74
2022/11/26 10:09:23;;;;;;;28.10;15.20;;;;;;;5.33;100.00;99547.48;214315;1310;25342;-72
2022/11/26 10:14:58;;;;;;;27.00;13.90;;;;;;;5.39;100.00;99546.35;214729;1288;24260;-72
2022/11/26 10:20:19;;;;;;;28.30;13.90;;;;;;;5.43;100.00;99552.23;214495;1304;25393;-74
2022/11/26 10:25:25;;;;;;;25.40;13.70;;;;;;;5.43;100.00;99554.30;214613;1303;23779;-72
2022/11/26 10:30:29;;;;;;;28.70;16.20;;;;;;;5.44;100.00;99557.67;214334;1312;23984;-73
2022/11/26 10:35:32;;;;;;;22.90;12.50;;;;;;;5.53;100.00;99554.23;214318;1311;25256;-72
2022/11/26 10:40:34;;;;;;;34.00;18.00;;;;;;;5.62;100.00;99551.06;214400;1295;142238;-72
2022/11/26 10:45:37;;;;;;;25.60;13.90;;;;;;;5.68;100.00;99551.08;214432;1285;23133;-72
2022/11/26 10:50:40;;;;;;;26.80;13.50;;;;;;;5.73;100.00;99548.98;214659;1295;24284;-71
2022/11/26 10:55:51;;;;;;;28.60;14.50;;;;;;;5.79;100.00;99553.23;214602;1288;25249;-74
2022/11/26 11:01:00;;;;;;;27.70;14.40;;;;;;;5.80;100.00;99556.73;214187;1288;22470;-72
2022/11/26 11:06:11;;;;;;;27.70;15.20;;;;;;;5.81;100.00;99555.89;214249;1288;23542;-72
2022/11/26 11:11:22;;;;;;;24.60;13.80;;;;;;;5.84;100.00;99554.66;214361;1288;22552;-72
2022/11/26 11:16:26;;;;;;;27.80;15.30;;;;;;;5.87;100.00;99553.39;214239;1310;25264;-72
2022/11/26 11:21:33;;;;;;;31.10;17.00;;;;;;;5.92;100.00;99552.84;214231;1310;22514;-72
2022/11/26 11:26:44;;;;;;;27.90;15.10;;;;;;;5.96;100.00;99555.35;214600;1281;25291;-72
2022/11/26 11:31:46;;;;;;;31.90;17.50;;;;;;;5.98;100.00;99557.89;214213;1311;25336;-72
2022/11/26 11:37:05;;;;;;;24.80;14.40;;;;;;;6.07;100.00;99557.91;214365;1285;22606;-73
2022/11/26 11:42:22;;;;;;;23.70;13.90;;;;;;;6.17;100.00;99559.11;214297;1288;22461;-72
2022/11/26 11:47:30;;;;;;;20.10;11.50;;;;;;;6.24;100.00;99556.15;214565;1288;22482;-72
2022/11/26 11:52:52;;;;;;;23.90;13.70;;;;;;;6.30;100.00;99562.10;214404;1285;24251;-73
2022/11/26 11:58:28;;;;;;;27.10;14.40;;;;;;;6.38;100.00;99567.48;214306;1278;24347;-76
2022/11/26 12:04:00;;;;;;;23.40;13.20;;;;;;;6.42;100.00;99574.91;214044;1311;23064;-77
2022/11/26 12:09:18;;;;;;;26.00;14.30;;;;;;;6.43;100.00;99569.39;214080;1312;24532;-76
2022/11/26 12:14:35;;;;;;;28.20;14.10;;;;;;;6.44;100.00;99575.80;213826;1312;22477;-76
2022/11/26 12:19:49;;;;;;;28.90;14.90;;;;;;;6.44;100.00;99578.99;213746;1313;22475;-75
2022/11/26 12:24:56;;;;;;;27.00;15.20;;;;;;;6.46;100.00;99578.39;213885;1310;22497;-75
2022/11/26 12:30:11;;;;;;;25.60;14.80;;;;;;;6.47;100.00;99581.39;213839;1312;23471;-75
2022/11/26 12:35:34;;;;;;;25.70;13.70;;;;;;;6.47;100.00;99576.48;213903;1312;22472;-75
2022/11/26 12:40:43;;;;;;;25.60;14.20;;;;;;;6.47;100.00;99579.09;214073;1310;22481;-75
2022/11/26 12:46:07;;;;;;;20.70;11.90;;;;;;;6.48;100.00;99583.41;214082;1312;22693;-74
2022/11/26 12:51:30;;;;;;;19.70;11.40;;;;;;;6.41;100.00;99582.30;214070;1304;22634;-75
2022/11/26 12:56:40;;;;;;;19.70;12.10;;;;;;;6.37;100.00;99586.95;214057;1311;25277;-75
2022/11/26 13:01:42;;;;;;;;;;;;;;;6.34;100.00;99586.60;213920;1310;22569;-75
2022/11/26 13:06:50;;;;;;;16.80;9.50;;;;;;;6.25;100.00;99588.00;214107;1310;23927;-76
2022/11/26 13:12:04;;;;;;;18.30;11.80;;;;;;;6.16;100.00;99584.63;214129;1311;22474;-75
2022/11/26 13:17:18;;;;;;;16.80;10.40;;;;;;;6.13;100.00;99586.23;214179;1312;22467;-75
2022/11/26 13:22:51;;;;;;;22.20;12.80;;;;;;;6.11;100.00;99595.19;213821;1312;22470;-76
2022/11/26 13:28:08;;;;;;;20.60;12.20;;;;;;;6.11;100.00;99596.69;214116;1312;23776;-76
2022/11/26 13:33:48;;;;;;;18.80;10.70;;;;;;;6.13;100.00;99601.45;213989;1312;25314;-75
2022/11/26 13:39:04;;;;;;;17.70;9.90;;;;;;;6.10;100.00;99604.79;214163;1313;22610;-76
2022/11/26 13:44:18;;;;;;;21.00;12.10;;;;;;;6.07;100.00;99606.77;214109;1312;22513;-76
2022/11/26 13:49:41;;;;;;;21.00;11.70;;;;;;;6.07;100.00;99608.41;214222;1305;22773;-75
2022/11/26 13:55:02;;;;;;;15.20;9.50;;;;;;;6.12;100.00;99605.69;214049;1312;24430;-76
2022/11/26 14:00:06;;;;;;;26.70;15.00;;;;;;;6.14;100.00;99612.42;214260;1311;24313;-76
2022/11/26 14:05:16;;;;;;;20.40;11.80;;;;;;;6.17;100.00;99608.48;214044;1298;23776;-76
2022/11/26 14:10:41;;;;;;;15.30;10.00;;;;;;;6.21;100.00;99619.52;214022;1295;25399;-75
2022/11/26 14:15:43;;;;;;;17.10;9.70;;;;;;;6.22;100.00;99617.58;214073;1313;23912;-75
2022/11/26 14:21:00;;;;;;;15.60;10.20;;;;;;;6.22;100.00;99622.58;214024;1310;25466;-76
2022/11/26 14:26:02;;;;;;;19.00;11.00;;;;;;;6.21;100.00;99622.55;214102;1312;24478;-76
2022/11/26 14:31:23;;;;;;;21.50;12.10;;;;;;;6.19;100.00;99622.89;213965;1312;24259;-76
2022/11/26 14:36:27;;;;;;;20.90;11.70;;;;;;;6.18;100.00;99626.34;214202;1311;25142;-76
2022/11/26 14:41:53;;;;;;;19.20;11.70;;;;;;;6.14;100.00;99633.39;214391;1312;22487;-75
2022/11/26 14:47:15;;;;;;;20.40;12.10;;;;;;;6.10;100.00;99633.20;214024;1311;25469;-76
2022/11/26 14:52:27;;;;;;;18.70;11.90;;;;;;;6.05;100.00;99639.44;214141;1312;22477;-76
2022/11/26 14:57:42;;;;;;;15.40;9.70;;;;;;;6.01;100.00;99642.30;214221;1310;25380;-75
2022/11/26 15:02:44;;;;;;;14.10;9.10;;;;;;;5.96;100.00;99653.94;214181;1312;22489;-75
2022/11/26 15:08:06;;;;;;;15.90;9.50;;;;;;;5.94;100.00;99659.30;213940;1311;22482;-75
2022/11/26 15:13:29;;;;;;;15.00;8.90;;;;;;;5.92;100.00;99661.52;213968;1310;22535;-75
2022/11/26 15:18:33;;;;;;;13.70;8.80;;;;;;;5.91;100.00;99665.09;214042;1312;22664;-75
2022/11/26 15:23:40;;;;;;;15.00;8.60;;;;;;;5.89;100.00;99667.30;214134;1311;22510;-76
2022/11/26 15:28:43;;;;;;;16.00;9.40;;;;;;;5.86;100.00;99665.75;214174;1312;24284;-76
2022/11/26 15:33:46;;;;;;;16.60;9.30;;;;;;;5.84;100.00;99670.16;214018;1312;25316;-75
2022/11/26 15:39:06;;;;;;;14.70;8.40;;;;;;;5.81;100.00;99671.50;213997;1312;22508;-76
2022/11/26 15:44:37;;;;;;;14.50;8.30;;;;;;;5.77;100.00;99676.20;214039;1312;24489;-76
2022/11/26 15:49:49;;;;;;;11.70;8.20;;;;;;;5.72;100.00;99684.92;214061;1310;22482;-76
2022/11/26 15:55:01;;;;;;;10.30;7.30;;;;;;;5.65;100.00;99692.55;214139;1311;22498;-76
2022/11/26 16:00:21;;;;;;;12.70;8.40;;;;;;;5.55;100.00;99696.04;213875;1312;22557;-76
2022/11/26 16:05:38;;;;;;;13.60;8.10;;;;;;;5.44;100.00;99699.14;214041;1288;22965;-76
2022/11/26 16:10:40;;;;;;;13.80;8.90;;;;;;;5.34;100.00;99701.46;214204;1310;22532;-76
2022/11/26 16:15:49;;;;;;;13.20;7.70;;;;;;;5.27;100.00;99708.34;214003;1311;22532;-76
2022/11/26 16:21:01;;;;;;;14.90;9.70;;;;;;;5.22;100.00;99700.89;214057;1305;22925;-75
2022/11/26 16:26:10;;;;;;;11.90;8.30;;;;;;;5.22;100.00;99698.54;213966;1311;22486;-76
2022/11/26 16:31:14;;;;;;;14.50;8.70;;;;;;;5.22;100.00;99704.66;214182;1312;22485;-76
2022/11/26 16:36:20;;;;;;;13.90;9.10;;;;;;;5.22;100.00;99717.46;213927;1313;24367;-75
2022/11/26 16:41:22;;;;;;;18.10;9.80;;;;;;;5.21;100.00;99725.25;213971;1310;23741;-76
2022/11/26 16:46:26;;;;;;;14.90;9.20;;;;;;;5.19;100.00;99735.63;214018;1313;23448;-74
2022/11/26 16:51:29;;;;;;;14.80;9.50;;;;;;;5.18;100.00;99751.21;214014;1313;23288;-76
2022/11/26 16:56:36;;;;;;;20.50;10.20;;;;;;;5.17;100.00;99753.30;214153;1312;25415;-76
2022/11/26 17:01:38;;;;;;;17.70;10.80;;;;;;;5.16;100.00;99761.40;213855;1313;24430;-75
2022/11/26 17:06:40;;;;;;;18.90;11.00;;;;;;;5.14;100.00;99771.94;214029;1313;22608;-76
2022/11/26 17:11:42;;;;;;;22.10;12.70;;;;;;;5.12;100.00;99771.10;214274;1304;22480;-75
2022/11/26 17:16:44;;;;;;;21.80;12.80;;;;;;;5.09;100.00;99777.40;214051;1312;22490;-75
2022/11/26 17:21:46;;;;;;;21.80;12.30;;;;;;;5.05;100.00;99778.82;213968;1311;23585;-75
2022/11/26 17:26:48;;;;;;;22.00;12.80;;;;;;;4.99;100.00;99786.92;214169;1312;24278;-75
2022/11/26 17:31:50;;;;;;;22.20;12.90;;;;;;;4.94;100.00;99789.66;214202;1284;22477;-76
2022/11/26 17:36:58;;;;;;;25.60;13.20;;;;;;;4.90;100.00;99792.38;214223;1284;22528;-76
2022/11/26 17:42:00;;;;;;;24.30;13.10;;;;;;;4.87;100.00;99796.90;214420;1313;26425;-76
2022/11/26 17:47:02;;;;;;;23.30;12.70;;;;;;;4.81;100.00;99797.55;214287;1307;24078;-79
2022/11/26 17:52:18;;;;;;;27.10;13.70;;;;;;;4.77;100.00;99804.94;214266;1313;25437;-76
2022/11/26 17:57:21;;;;;;;28.20;13.90;;;;;;;4.75;100.00;99810.40;214028;1310;24455;-75
2022/11/26 18:02:23;;;;;;;32.10;15.50;;;;;;;4.73;100.00;99817.29;214306;1310;25340;-76
2022/11/26 18:07:25;;;;;;;26.30;14.40;;;;;;;4.70;100.00;99826.76;214130;1310;24346;-75
2022/11/26 18:12:27;;;;;;;30.00;15.10;;;;;;;4.66;100.00;99829.25;214124;1310;22497;-76
2022/11/26 18:17:30;;;;;;;34.20;16.10;;;;;;;4.64;100.00;99830.58;214124;1310;22552;-75
2022/11/26 18:22:32;;;;;;;32.60;15.80;;;;;;;4.64;100.00;99831.43;214110;1310;22488;-75
2022/11/26 18:27:34;;;;;;;30.70;15.30;;;;;;;4.63;100.00;99827.81;214078;1310;25277;-75
2022/11/26 18:32:37;;;;;;;32.10;16.00;;;;;;;4.63;100.00;99832.38;214107;1310;22525;-77
2022/11/26 18:37:39;;;;;;;34.70;16.60;;;;;;;4.64;100.00;99831.29;214425;1310;23560;-76
2022/11/26 18:42:42;;;;;;;33.70;16.50;;;;;;;4.65;100.00;99836.09;214174;1310;22481;-75
2022/11/26 18:47:44;;;;;;;38.00;17.60;;;;;;;4.64;100.00;99838.46;213896;1310;22487;-76
2022/11/26 18:52:45;;;;;;;39.90;18.20;;;;;;;4.64;100.00;99841.23;214102;1310;23896;-75
2022/11/26 18:57:47;;;;;;;38.10;17.80;;;;;;;4.61;100.00;99847.59;214000;1286;25442;-74
2022/11/26 19:02:49;;;;;;;39.30;18.40;;;;;;;4.60;100.00;99850.43;214102;1310;22946;-75
2022/11/26 19:07:51;;;;;;;39.50;18.40;;;;;;;4.58;100.00;99855.39;213940;1310;22578;-75
2022/11/26 19:12:53;;;;;;;41.70;17.50;;;;;;;4.57;100.00;99858.84;214315;1294;22495;-75
2022/11/26 19:17:55;;;;;;;41.70;19.40;;;;;;;4.52;100.00;99854.30;214109;1310;24352;-77
2022/11/26 19:22:57;;;;;;;45.90;20.60;;;;;;;4.49;100.00;99855.54;214051;1310;22608;-75
2022/11/26 19:27:59;;;;;;;39.60;19.60;;;;;;;4.44;100.00;99862.77;214165;1309;22694;-74
2022/11/26 19:33:06;;;;;;;46.10;21.90;;;;;;;4.43;100.00;99860.98;214096;1306;22485;-75
2022/11/26 19:38:08;;;;;;;42.70;20.30;;;;;;;4.44;100.00;99862.90;214251;1310;22536;-75
2022/11/26 19:43:10;;;;;;;46.80;20.40;;;;;;;4.43;100.00;99868.16;214053;1310;22476;-75
2022/11/26 19:48:12;;;;;;;42.50;19.60;;;;;;;4.41;100.00;99875.58;214117;1309;22577;-76
2022/11/26 19:53:14;;;;;;;38.90;18.30;;;;;;;4.39;100.00;99879.81;214257;1310;22522;-74
2022/11/26 19:58:15;;;;;;;44.60;20.20;;;;;;;4.36;100.00;99882.13;214297;1310;25102;-75
2022/11/26 20:03:17;;;;;;;46.50;21.50;;;;;;;4.37;100.00;99886.88;213972;1310;25218;-74
2022/11/26 20:08:19;;;;;;;44.30;20.20;;;;;;;4.40;100.00;99894.34;214355;1310;24275;-75
2022/11/26 20:13:21;;;;;;;46.70;21.00;;;;;;;4.39;100.00;99893.68;214163;1308;26364;-75
2022/11/26 20:18:23;;;;;;;48.90;20.50;;;;;;;4.40;100.00;99902.88;214237;1310;22481;-74
2022/11/26 20:23:26;;;;;;;42.00;19.30;;;;;;;4.37;100.00;99905.49;214014;1310;22500;-75
2022/11/26 20:28:28;;;;;;;56.60;21.20;;;;;;;4.34;100.00;99906.27;214340;1310;25349;-76
2022/11/26 20:33:30;;;;;;;49.20;19.80;;;;;;;4.32;100.00;99904.75;214213;1310;22551;-76
2022/11/26 20:38:32;;;;;;;45.90;19.50;;;;;;;4.30;100.00;99905.55;214208;1310;22459;-75
2022/11/26 20:43:35;;;;;;;39.10;17.60;;;;;;;4.31;100.00;99908.34;213978;1310;22478;-75
2022/11/26 20:48:39;;;;;;;44.30;18.50;;;;;;;4.31;100.00;99908.91;214293;1310;22520;-75
2022/11/26 20:53:44;;;;;;;46.10;18.20;;;;;;;4.31;100.00;99908.45;214135;1310;22516;-74
2022/11/26 20:58:48;;;;;;;50.10;20.40;;;;;;;4.31;100.00;99912.16;213947;1301;22628;-75
2022/11/26 21:03:51;;;;;;;49.00;20.00;;;;;;;4.32;100.00;99916.65;214309;1310;24433;-75
2022/11/26 21:08:53;;;;;;;45.40;19.80;;;;;;;4.33;100.00;99916.77;214145;1310;22468;-76
2022/11/26 21:13:57;;;;;;;42.60;19.30;;;;;;;4.33;100.00;99916.61;214077;1310;25120;-75
2022/11/26 21:18:59;;;;;;;45.40;20.60;;;;;;;4.32;100.00;99917.42;214175;1310;25370;-76
2022/11/26 21:24:03;;;;;;;42.10;18.30;;;;;;;4.32;100.00;99918.45;214063;1288;22732;-75
2022/11/26 21:29:05;;;;;;;51.60;20.70;;;;;;;4.33;100.00;99920.02;214190;1310;22620;-75
2022/11/26 21:34:09;;;;;;;53.10;19.90;;;;;;;4.33;100.00;99923.20;213995;1310;24420;-75
2022/11/26 21:39:15;;;;;;;47.80;18.80;;;;;;;4.32;100.00;99926.25;214047;1310;22705;-75
2022/11/26 21:44:17;;;;;;;42.90;18.00;;;;;;;4.29;100.00;99920.52;214171;1310;25289;-74
2022/11/26 21:49:19;;;;;;;38.90;17.20;;;;;;;4.27;100.00;99916.98;213971;1310;25331;-75
2022/11/26 21:54:21;;;;;;;43.70;18.80;;;;;;;4.26;100.00;99921.03;214198;1310;22485;-74
2022/11/26 21:59:23;;;;;;;48.40;20.70;;;;;;;4.26;100.00;99923.15;213960;1310;22466;-76
2022/11/26 22:04:25;;;;;;;54.10;21.40;;;;;;;4.28;100.00;99926.95;214180;1310;24082;-75
2022/11/26 22:09:30;;;;;;;39.00;16.90;;;;;;;4.30;100.00;99928.84;213955;1307;22527;-76
2022/11/26 22:14:35;;;;;;;41.10;16.60;;;;;;;4.27;100.00;99928.61;214103;1310;24365;-77
2022/11/26 22:19:37;;;;;;;41.20;17.20;;;;;;;4.24;100.00;99931.17;214083;1310;23200;-75
2022/11/26 22:24:40;;;;;;;39.40;16.80;;;;;;;4.21;100.00;99932.95;213956;1310;22468;-75
2022/11/26 22:29:42;;;;;;;40.00;17.30;;;;;;;4.16;100.00;99937.65;214080;1310;24333;-76
2022/11/26 22:34:44;;;;;;;49.60;21.40;;;;;;;4.15;100.00;99936.93;214128;1310;22477;-75
2022/11/26 22:39:45;;;;;;;49.90;22.20;;;;;;;4.14;100.00;99940.85;214187;1310;138384;-75
2022/11/26 22:44:55;;;;;;;50.70;23.90;;;;;;;4.15;100.00;99942.44;214278;1309;22504;-75
2022/11/26 22:49:56;;;;;;;46.20;20.60;;;;;;;4.14;100.00;99941.87;214048;1309;22523;-75
2022/11/26 22:54:58;;;;;;;46.20;19.80;;;;;;;4.09;100.00;99946.08;214325;1310;24282;-75
2022/11/26 23:00:00;;;;;;;36.20;17.50;;;;;;;4.06;100.00;99939.08;214081;1309;22471;-75
2022/11/26 23:05:02;;;;;;;29.50;13.90;;;;;;;4.07;100.00;99932.76;214098;1310;22507;-75
2022/11/26 23:10:05;;;;;;;37.10;16.10;;;;;;;4.07;100.00;99933.93;214128;1310;25396;-76